sensor_id;sensor_type;location;lat;lon;timestamp;P1;durP1;ratioP1;P2;durP2;ratioP2
12869;SDS011;6503;48.572;13.460;2022-12-01T00:02:07;46.85;;;23.60;;
12869;SDS011;6503;48.572;13.460;2022-12-01T00:04:42;54.03;;;25.27;;
12869;SDS011;6503;48.572;13.460;2022-12-01T00:07:24;53.10;;;25.55;;
12869;SDS011;6503;48.572;13.460;2022-12-01T00:09:57;45.25;;;22.58;;
12869;SDS011;6503;48.572;13.460;2022-12-01T00:12:43;48.42;;;25.67;;
12869;SDS011;6503;48.572;13.460;2022-12-01T00:15:11;46.83;;;25.48;;
12869;SDS011;6503;48.572;13.460;2022-12-01T00:17:39;47.35;;;23.92;;
12869;SDS011;6503;48.572;13.460;2022-12-01T00:20:08;53.10;;;23.90;;
12869;SDS011;6503;48.572;13.460;2022-12-01T00:22:44;51.67;;;24.08;;
12869;SDS011;6503;48.572;13.460;2022-12-01T00:25:22;54.28;;;25.48;;
12869;SDS011;6503;48.572;13.460;2022-12-01T00:34:33;54.28;;;23.50;;
12869;SDS011;6503;48.572;13.460;2022-12-01T00:39:38;72.57;;;27.83;;
12869;SDS011;6503;48.572;13.460;2022-12-01T00:42:14;66.13;;;28.50;;
12869;SDS011;6503;48.572;13.460;2022-12-01T00:44:44;66.93;;;27.92;;
12869;SDS011;6503;48.572;13.460;2022-12-01T00:47:27;63.67;;;26.92;;
12869;SDS011;6503;48.572;13.460;2022-12-01T00:50:08;70.75;;;30.48;;
12869;SDS011;6503;48.572;13.460;2022-12-01T00:52:49;77.25;;;28.90;;
12869;SDS011;6503;48.572;13.460;2022-12-01T00:55:16;71.72;;;29.58;;
12869;SDS011;6503;48.572;13.460;2022-12-01T00:57:45;94.78;;;30.10;;
12869;SDS011;6503;48.572;13.460;2022-12-01T01:00:14;91.00;;;32.30;;
12869;SDS011;6503;48.572;13.460;2022-12-01T01:05:50;103.32;;;29.10;;
12869;SDS011;6503;48.572;13.460;2022-12-01T01:08:20;168.52;;;33.30;;
12869;SDS011;6503;48.572;13.460;2022-12-01T01:10:51;97.28;;;31.08;;
12869;SDS011;6503;48.572;13.460;2022-12-01T01:13:49;137.85;;;32.30;;
12869;SDS011;6503;48.572;13.460;2022-12-01T01:16:17;189.30;;;35.63;;
12869;SDS011;6503;48.572;13.460;2022-12-01T01:18:46;109.93;;;31.67;;
12869;SDS011;6503;48.572;13.460;2022-12-01T01:21:15;109.68;;;31.88;;
12869;SDS011;6503;48.572;13.460;2022-12-01T01:23:45;202.70;;;36.20;;
12869;SDS011;6503;48.572;13.460;2022-12-01T01:26:14;202.23;;;33.88;;
12869;SDS011;6503;48.572;13.460;2022-12-01T01:28:44;108.20;;;31.15;;
12869;SDS011;6503;48.572;13.460;2022-12-01T01:31:14;92.75;;;30.45;;
12869;SDS011;6503;48.572;13.460;2022-12-01T01:33:42;130.30;;;30.33;;
12869;SDS011;6503;48.572;13.460;2022-12-01T01:36:10;99.97;;;29.38;;
12869;SDS011;6503;48.572;13.460;2022-12-01T01:38:38;78.05;;;28.15;;
12869;SDS011;6503;48.572;13.460;2022-12-01T01:41:05;66.68;;;26.77;;
12869;SDS011;6503;48.572;13.460;2022-12-01T01:43:39;64.00;;;26.40;;
12869;SDS011;6503;48.572;13.460;2022-12-01T01:46:08;83.90;;;25.42;;
12869;SDS011;6503;48.572;13.460;2022-12-01T01:48:39;121.10;;;27.23;;
12869;SDS011;6503;48.572;13.460;2022-12-01T01:51:09;72.85;;;24.77;;
12869;SDS011;6503;48.572;13.460;2022-12-01T01:53:39;121.68;;;27.50;;
12869;SDS011;6503;48.572;13.460;2022-12-01T01:56:07;115.38;;;28.52;;
12869;SDS011;6503;48.572;13.460;2022-12-01T01:58:35;125.00;;;28.77;;
12869;SDS011;6503;48.572;13.460;2022-12-01T02:01:04;110.00;;;29.33;;
12869;SDS011;6503;48.572;13.460;2022-12-01T02:03:32;134.45;;;30.20;;
12869;SDS011;6503;48.572;13.460;2022-12-01T02:06:06;163.90;;;33.05;;
12869;SDS011;6503;48.572;13.460;2022-12-01T02:08:35;130.32;;;33.50;;
12869;SDS011;6503;48.572;13.460;2022-12-01T02:11:14;168.10;;;31.27;;
12869;SDS011;6503;48.572;13.460;2022-12-01T02:14:03;98.07;;;29.95;;
12869;SDS011;6503;48.572;13.460;2022-12-01T02:16:40;96.93;;;27.48;;
12869;SDS011;6503;48.572;13.460;2022-12-01T02:19:22;105.72;;;26.80;;
12869;SDS011;6503;48.572;13.460;2022-12-01T02:22:13;71.90;;;25.17;;
12869;SDS011;6503;48.572;13.460;2022-12-01T02:24:59;77.90;;;25.70;;
12869;SDS011;6503;48.572;13.460;2022-12-01T02:27:52;73.10;;;24.90;;
12869;SDS011;6503;48.572;13.460;2022-12-01T02:30:41;67.57;;;24.33;;
12869;SDS011;6503;48.572;13.460;2022-12-01T02:33:13;56.53;;;20.95;;
12869;SDS011;6503;48.572;13.460;2022-12-01T02:35:54;50.40;;;22.95;;
12869;SDS011;6503;48.572;13.460;2022-12-01T02:38:27;65.93;;;23.30;;
12869;SDS011;6503;48.572;13.460;2022-12-01T02:41:06;72.35;;;24.17;;
12869;SDS011;6503;48.572;13.460;2022-12-01T02:43:42;68.20;;;22.60;;
12869;SDS011;6503;48.572;13.460;2022-12-01T02:46:19;117.53;;;26.08;;
12869;SDS011;6503;48.572;13.460;2022-12-01T02:48:50;103.18;;;25.98;;
12869;SDS011;6503;48.572;13.460;2022-12-01T02:51:21;84.78;;;23.73;;
12869;SDS011;6503;48.572;13.460;2022-12-01T02:53:53;91.43;;;24.85;;
12869;SDS011;6503;48.572;13.460;2022-12-01T02:56:22;117.30;;;26.73;;
12869;SDS011;6503;48.572;13.460;2022-12-01T02:58:51;67.57;;;23.20;;
12869;SDS011;6503;48.572;13.460;2022-12-01T03:01:34;69.63;;;24.55;;
12869;SDS011;6503;48.572;13.460;2022-12-01T03:04:19;81.45;;;24.05;;
12869;SDS011;6503;48.572;13.460;2022-12-01T03:07:03;82.03;;;24.45;;
12869;SDS011;6503;48.572;13.460;2022-12-01T03:09:40;63.45;;;22.98;;
12869;SDS011;6503;48.572;13.460;2022-12-01T03:12:22;109.35;;;25.08;;
12869;SDS011;6503;48.572;13.460;2022-12-01T03:14:57;112.43;;;24.88;;
12869;SDS011;6503;48.572;13.460;2022-12-01T03:17:35;105.47;;;24.65;;
12869;SDS011;6503;48.572;13.460;2022-12-01T03:20:09;52.72;;;23.33;;
12869;SDS011;6503;48.572;13.460;2022-12-01T03:22:45;50.15;;;20.75;;
12869;SDS011;6503;48.572;13.460;2022-12-01T03:25:18;54.50;;;20.77;;
12869;SDS011;6503;48.572;13.460;2022-12-01T03:27:48;58.67;;;22.73;;
12869;SDS011;6503;48.572;13.460;2022-12-01T03:30:20;71.07;;;23.08;;
12869;SDS011;6503;48.572;13.460;2022-12-01T03:32:53;68.32;;;22.83;;
12869;SDS011;6503;48.572;13.460;2022-12-01T03:35:26;71.10;;;23.17;;
12869;SDS011;6503;48.572;13.460;2022-12-01T03:37:58;58.03;;;22.42;;
12869;SDS011;6503;48.572;13.460;2022-12-01T03:40:31;61.67;;;22.80;;
12869;SDS011;6503;48.572;13.460;2022-12-01T03:43:03;60.22;;;22.08;;
12869;SDS011;6503;48.572;13.460;2022-12-01T03:45:35;57.22;;;22.80;;
12869;SDS011;6503;48.572;13.460;2022-12-01T03:48:10;63.10;;;23.17;;
12869;SDS011;6503;48.572;13.460;2022-12-01T03:53:09;75.75;;;23.65;;
12869;SDS011;6503;48.572;13.460;2022-12-01T03:55:45;71.18;;;23.85;;
12869;SDS011;6503;48.572;13.460;2022-12-01T03:58:18;101.68;;;22.88;;
12869;SDS011;6503;48.572;13.460;2022-12-01T04:00:51;60.67;;;21.70;;
12869;SDS011;6503;48.572;13.460;2022-12-01T04:03:24;75.68;;;22.83;;
12869;SDS011;6503;48.572;13.460;2022-12-01T04:05:52;65.65;;;22.15;;
12869;SDS011;6503;48.572;13.460;2022-12-01T04:08:19;68.90;;;22.65;;
12869;SDS011;6503;48.572;13.460;2022-12-01T04:10:47;60.03;;;22.80;;
12869;SDS011;6503;48.572;13.460;2022-12-01T04:13:16;59.30;;;22.33;;
12869;SDS011;6503;48.572;13.460;2022-12-01T04:15:47;90.57;;;25.05;;
12869;SDS011;6503;48.572;13.460;2022-12-01T04:18:15;54.72;;;21.38;;
12869;SDS011;6503;48.572;13.460;2022-12-01T04:20:45;55.38;;;22.55;;
12869;SDS011;6503;48.572;13.460;2022-12-01T04:23:15;74.30;;;22.23;;
12869;SDS011;6503;48.572;13.460;2022-12-01T04:25:57;60.78;;;22.73;;
12869;SDS011;6503;48.572;13.460;2022-12-01T04:28:29;70.25;;;22.38;;
12869;SDS011;6503;48.572;13.460;2022-12-01T04:30:56;57.78;;;21.33;;
12869;SDS011;6503;48.572;13.460;2022-12-01T04:33:24;56.15;;;22.02;;
12869;SDS011;6503;48.572;13.460;2022-12-01T04:35:57;53.75;;;22.15;;
12869;SDS011;6503;48.572;13.460;2022-12-01T04:38:27;44.20;;;19.70;;
12869;SDS011;6503;48.572;13.460;2022-12-01T04:40:54;51.15;;;20.67;;
12869;SDS011;6503;48.572;13.460;2022-12-01T04:43:22;43.80;;;19.05;;
12869;SDS011;6503;48.572;13.460;2022-12-01T04:45:49;61.83;;;22.88;;
12869;SDS011;6503;48.572;13.460;2022-12-01T04:48:17;39.85;;;19.45;;
12869;SDS011;6503;48.572;13.460;2022-12-01T04:50:44;44.50;;;19.70;;
12869;SDS011;6503;48.572;13.460;2022-12-01T04:53:16;37.92;;;18.90;;
12869;SDS011;6503;48.572;13.460;2022-12-01T04:55:47;41.00;;;18.73;;
12869;SDS011;6503;48.572;13.460;2022-12-01T04:58:15;42.50;;;19.73;;
12869;SDS011;6503;48.572;13.460;2022-12-01T05:00:42;36.08;;;18.30;;
12869;SDS011;6503;48.572;13.460;2022-12-01T05:03:12;41.13;;;20.70;;
12869;SDS011;6503;48.572;13.460;2022-12-01T05:05:41;42.25;;;19.67;;
12869;SDS011;6503;48.572;13.460;2022-12-01T05:08:08;43.75;;;19.67;;
12869;SDS011;6503;48.572;13.460;2022-12-01T05:10:37;46.55;;;23.38;;
12869;SDS011;6503;48.572;13.460;2022-12-01T05:13:04;41.00;;;20.40;;
12869;SDS011;6503;48.572;13.460;2022-12-01T05:15:31;38.08;;;19.75;;
12869;SDS011;6503;48.572;13.460;2022-12-01T05:17:58;39.33;;;19.15;;
12869;SDS011;6503;48.572;13.460;2022-12-01T05:20:25;40.10;;;20.27;;
12869;SDS011;6503;48.572;13.460;2022-12-01T05:23:10;40.58;;;19.95;;
12869;SDS011;6503;48.572;13.460;2022-12-01T05:25:39;40.83;;;19.20;;
12869;SDS011;6503;48.572;13.460;2022-12-01T05:28:09;38.80;;;19.83;;
12869;SDS011;6503;48.572;13.460;2022-12-01T05:30:38;37.38;;;18.98;;
12869;SDS011;6503;48.572;13.460;2022-12-01T05:33:08;33.83;;;19.05;;
12869;SDS011;6503;48.572;13.460;2022-12-01T05:35:35;36.63;;;19.45;;
12869;SDS011;6503;48.572;13.460;2022-12-01T05:38:02;37.53;;;20.13;;
12869;SDS011;6503;48.572;13.460;2022-12-01T05:40:30;40.28;;;19.15;;
12869;SDS011;6503;48.572;13.460;2022-12-01T05:42:58;38.45;;;16.90;;
12869;SDS011;6503;48.572;13.460;2022-12-01T05:45:25;34.33;;;17.05;;
12869;SDS011;6503;48.572;13.460;2022-12-01T05:47:54;31.27;;;16.92;;
12869;SDS011;6503;48.572;13.460;2022-12-01T05:50:22;32.95;;;17.23;;
12869;SDS011;6503;48.572;13.460;2022-12-01T05:52:50;33.10;;;17.13;;
12869;SDS011;6503;48.572;13.460;2022-12-01T05:55:17;39.58;;;16.70;;
12869;SDS011;6503;48.572;13.460;2022-12-01T05:57:46;33.60;;;17.27;;
12869;SDS011;6503;48.572;13.460;2022-12-01T06:00:17;33.35;;;17.42;;
12869;SDS011;6503;48.572;13.460;2022-12-01T06:02:46;38.28;;;19.60;;
12869;SDS011;6503;48.572;13.460;2022-12-01T06:05:13;33.10;;;17.23;;
12869;SDS011;6503;48.572;13.460;2022-12-01T06:07:42;30.65;;;16.38;;
12869;SDS011;6503;48.572;13.460;2022-12-01T06:10:10;35.93;;;18.40;;
12869;SDS011;6503;48.572;13.460;2022-12-01T06:12:39;32.00;;;17.55;;
12869;SDS011;6503;48.572;13.460;2022-12-01T06:15:09;31.58;;;16.80;;
12869;SDS011;6503;48.572;13.460;2022-12-01T06:17:42;33.08;;;17.58;;
12869;SDS011;6503;48.572;13.460;2022-12-01T06:20:10;37.45;;;17.50;;
12869;SDS011;6503;48.572;13.460;2022-12-01T06:22:40;31.45;;;17.65;;
12869;SDS011;6503;48.572;13.460;2022-12-01T06:25:09;33.70;;;16.38;;
12869;SDS011;6503;48.572;13.460;2022-12-01T06:27:39;29.08;;;16.55;;
12869;SDS011;6503;48.572;13.460;2022-12-01T06:30:07;30.65;;;17.73;;
12869;SDS011;6503;48.572;13.460;2022-12-01T06:32:35;34.85;;;17.27;;
12869;SDS011;6503;48.572;13.460;2022-12-01T06:35:21;33.28;;;17.35;;
12869;SDS011;6503;48.572;13.460;2022-12-01T06:37:52;30.48;;;17.10;;
12869;SDS011;6503;48.572;13.460;2022-12-01T06:40:21;33.47;;;16.92;;
12869;SDS011;6503;48.572;13.460;2022-12-01T06:43:03;28.95;;;16.00;;
12869;SDS011;6503;48.572;13.460;2022-12-01T06:45:48;32.20;;;17.77;;
12869;SDS011;6503;48.572;13.460;2022-12-01T06:48:30;37.45;;;17.17;;
12869;SDS011;6503;48.572;13.460;2022-12-01T06:51:14;28.95;;;16.33;;
12869;SDS011;6503;48.572;13.460;2022-12-01T06:54:01;32.35;;;17.55;;
12869;SDS011;6503;48.572;13.460;2022-12-01T06:56:57;31.55;;;18.13;;
12869;SDS011;6503;48.572;13.460;2022-12-01T06:59:27;34.90;;;16.65;;
12869;SDS011;6503;48.572;13.460;2022-12-01T07:02:00;35.25;;;17.08;;
12869;SDS011;6503;48.572;13.460;2022-12-01T07:04:39;36.95;;;17.30;;
12869;SDS011;6503;48.572;13.460;2022-12-01T07:07:18;34.05;;;17.92;;
12869;SDS011;6503;48.572;13.460;2022-12-01T07:09:50;34.47;;;18.77;;
12869;SDS011;6503;48.572;13.460;2022-12-01T07:15:11;36.13;;;17.60;;
12869;SDS011;6503;48.572;13.460;2022-12-01T07:17:42;31.35;;;16.58;;
12869;SDS011;6503;48.572;13.460;2022-12-01T07:25:10;30.02;;;15.65;;
12869;SDS011;6503;48.572;13.460;2022-12-01T07:27:38;28.63;;;17.20;;
12869;SDS011;6503;48.572;13.460;2022-12-01T07:30:07;32.40;;;16.65;;
12869;SDS011;6503;48.572;13.460;2022-12-01T07:32:38;31.10;;;16.60;;
12869;SDS011;6503;48.572;13.460;2022-12-01T07:35:10;29.33;;;16.70;;
12869;SDS011;6503;48.572;13.460;2022-12-01T07:37:37;30.10;;;16.20;;
12869;SDS011;6503;48.572;13.460;2022-12-01T07:40:08;29.48;;;15.85;;
12869;SDS011;6503;48.572;13.460;2022-12-01T07:42:42;31.00;;;17.85;;
12869;SDS011;6503;48.572;13.460;2022-12-01T07:45:09;64.43;;;35.22;;
12869;SDS011;6503;48.572;13.460;2022-12-01T07:47:39;34.72;;;17.35;;
12869;SDS011;6503;48.572;13.460;2022-12-01T07:50:09;33.83;;;16.20;;
12869;SDS011;6503;48.572;13.460;2022-12-01T07:52:38;34.35;;;19.13;;
12869;SDS011;6503;48.572;13.460;2022-12-01T07:55:10;33.88;;;19.10;;
12869;SDS011;6503;48.572;13.460;2022-12-01T07:57:39;37.17;;;19.05;;
12869;SDS011;6503;48.572;13.460;2022-12-01T08:00:07;33.55;;;18.08;;
12869;SDS011;6503;48.572;13.460;2022-12-01T08:02:35;35.83;;;18.30;;
12869;SDS011;6503;48.572;13.460;2022-12-01T08:05:03;33.35;;;18.00;;
12869;SDS011;6503;48.572;13.460;2022-12-01T08:07:36;30.65;;;18.08;;
12869;SDS011;6503;48.572;13.460;2022-12-01T08:10:16;36.20;;;17.98;;
12869;SDS011;6503;48.572;13.460;2022-12-01T08:13:04;30.58;;;16.63;;
12869;SDS011;6503;48.572;13.460;2022-12-01T08:15:34;33.50;;;18.63;;
12869;SDS011;6503;48.572;13.460;2022-12-01T08:21:22;34.28;;;17.48;;
12869;SDS011;6503;48.572;13.460;2022-12-01T08:23:58;36.35;;;18.75;;
12869;SDS011;6503;48.572;13.460;2022-12-01T08:26:41;36.65;;;17.80;;
12869;SDS011;6503;48.572;13.460;2022-12-01T08:29:12;37.42;;;18.75;;
12869;SDS011;6503;48.572;13.460;2022-12-01T08:31:39;31.95;;;17.40;;
12869;SDS011;6503;48.572;13.460;2022-12-01T08:34:14;36.03;;;19.05;;
12869;SDS011;6503;48.572;13.460;2022-12-01T08:39:29;36.67;;;20.15;;
12869;SDS011;6503;48.572;13.460;2022-12-01T08:42:19;34.08;;;18.73;;
12869;SDS011;6503;48.572;13.460;2022-12-01T08:45:06;35.40;;;19.05;;
12869;SDS011;6503;48.572;13.460;2022-12-01T08:47:36;33.85;;;18.40;;
12869;SDS011;6503;48.572;13.460;2022-12-01T08:50:04;35.72;;;19.90;;
12869;SDS011;6503;48.572;13.460;2022-12-01T08:52:35;37.38;;;19.08;;
12869;SDS011;6503;48.572;13.460;2022-12-01T08:55:09;38.30;;;20.58;;
12869;SDS011;6503;48.572;13.460;2022-12-01T08:57:50;35.85;;;18.67;;
12869;SDS011;6503;48.572;13.460;2022-12-01T09:00:28;32.97;;;19.10;;
12869;SDS011;6503;48.572;13.460;2022-12-01T09:02:55;36.28;;;20.50;;
12869;SDS011;6503;48.572;13.460;2022-12-01T09:08:17;38.87;;;19.33;;
12869;SDS011;6503;48.572;13.460;2022-12-01T09:10:58;33.78;;;19.10;;
12869;SDS011;6503;48.572;13.460;2022-12-01T09:13:29;38.25;;;19.33;;
12869;SDS011;6503;48.572;13.460;2022-12-01T09:16:00;38.90;;;20.05;;
12869;SDS011;6503;48.572;13.460;2022-12-01T09:18:30;41.30;;;21.73;;
12869;SDS011;6503;48.572;13.460;2022-12-01T09:21:11;40.85;;;20.90;;
12869;SDS011;6503;48.572;13.460;2022-12-01T09:23:40;41.13;;;21.33;;
12869;SDS011;6503;48.572;13.460;2022-12-01T09:26:14;38.22;;;20.98;;
12869;SDS011;6503;48.572;13.460;2022-12-01T09:28:51;36.00;;;20.08;;
12869;SDS011;6503;48.572;13.460;2022-12-01T09:31:28;37.80;;;20.98;;
12869;SDS011;6503;48.572;13.460;2022-12-01T09:33:56;35.53;;;20.65;;
12869;SDS011;6503;48.572;13.460;2022-12-01T09:36:26;41.65;;;22.50;;
12869;SDS011;6503;48.572;13.460;2022-12-01T09:38:59;38.95;;;20.98;;
12869;SDS011;6503;48.572;13.460;2022-12-01T09:55:12;33.50;;;18.67;;
12869;SDS011;6503;48.572;13.460;2022-12-01T09:57:51;35.90;;;19.23;;
12869;SDS011;6503;48.572;13.460;2022-12-01T10:00:32;37.53;;;21.02;;
12869;SDS011;6503;48.572;13.460;2022-12-01T10:03:16;34.10;;;19.90;;
12869;SDS011;6503;48.572;13.460;2022-12-01T10:06:05;37.88;;;19.88;;
12869;SDS011;6503;48.572;13.460;2022-12-01T10:08:54;33.70;;;19.17;;
12869;SDS011;6503;48.572;13.460;2022-12-01T10:12:09;35.65;;;19.70;;
12869;SDS011;6503;48.572;13.460;2022-12-01T10:14:45;38.10;;;20.80;;
12869;SDS011;6503;48.572;13.460;2022-12-01T10:17:17;33.63;;;18.73;;
12869;SDS011;6503;48.572;13.460;2022-12-01T10:19:58;35.65;;;19.67;;
12869;SDS011;6503;48.572;13.460;2022-12-01T10:26:33;34.58;;;20.10;;
12869;SDS011;6503;48.572;13.460;2022-12-01T10:29:07;35.83;;;19.90;;
12869;SDS011;6503;48.572;13.460;2022-12-01T10:31:41;34.85;;;20.13;;
12869;SDS011;6503;48.572;13.460;2022-12-01T10:34:20;32.33;;;19.23;;
12869;SDS011;6503;48.572;13.460;2022-12-01T10:36:49;31.88;;;18.58;;
12869;SDS011;6503;48.572;13.460;2022-12-01T10:39:21;34.47;;;19.80;;
12869;SDS011;6503;48.572;13.460;2022-12-01T10:46:17;36.30;;;20.52;;
12869;SDS011;6503;48.572;13.460;2022-12-01T10:49:05;36.35;;;20.63;;
12869;SDS011;6503;48.572;13.460;2022-12-01T10:51:47;41.28;;;21.08;;
12869;SDS011;6503;48.572;13.460;2022-12-01T10:54:19;39.08;;;21.08;;
12869;SDS011;6503;48.572;13.460;2022-12-01T10:56:51;39.55;;;21.20;;
12869;SDS011;6503;48.572;13.460;2022-12-01T10:59:25;39.50;;;21.75;;
12869;SDS011;6503;48.572;13.460;2022-12-01T11:02:13;39.63;;;21.83;;
12869;SDS011;6503;48.572;13.460;2022-12-01T11:04:50;42.72;;;23.77;;
12869;SDS011;6503;48.572;13.460;2022-12-01T11:07:31;38.42;;;22.48;;
12869;SDS011;6503;48.572;13.460;2022-12-01T11:10:03;41.23;;;22.00;;
12869;SDS011;6503;48.572;13.460;2022-12-01T11:12:44;45.83;;;24.27;;
12869;SDS011;6503;48.572;13.460;2022-12-01T11:15:21;42.47;;;22.38;;
12869;SDS011;6503;48.572;13.460;2022-12-01T11:17:58;43.80;;;22.52;;
12869;SDS011;6503;48.572;13.460;2022-12-01T11:20:29;44.90;;;23.00;;
12869;SDS011;6503;48.572;13.460;2022-12-01T11:26:18;42.92;;;22.65;;
12869;SDS011;6503;48.572;13.460;2022-12-01T11:32:26;39.67;;;21.35;;
12869;SDS011;6503;48.572;13.460;2022-12-01T11:38:43;48.25;;;23.75;;
12869;SDS011;6503;48.572;13.460;2022-12-01T11:41:27;44.58;;;23.02;;
12869;SDS011;6503;48.572;13.460;2022-12-01T11:44:03;49.70;;;24.70;;
12869;SDS011;6503;48.572;13.460;2022-12-01T11:47:13;48.08;;;24.95;;
12869;SDS011;6503;48.572;13.460;2022-12-01T11:49:44;48.05;;;25.25;;
12869;SDS011;6503;48.572;13.460;2022-12-01T11:55:46;43.63;;;23.73;;
12869;SDS011;6503;48.572;13.460;2022-12-01T11:58:48;52.15;;;26.13;;
12869;SDS011;6503;48.572;13.460;2022-12-01T12:01:44;45.47;;;23.25;;
12869;SDS011;6503;48.572;13.460;2022-12-01T12:04:41;49.35;;;25.00;;
12869;SDS011;6503;48.572;13.460;2022-12-01T12:08:08;45.72;;;22.50;;
12869;SDS011;6503;48.572;13.460;2022-12-01T12:10:52;51.08;;;26.08;;
12869;SDS011;6503;48.572;13.460;2022-12-01T12:16:54;51.08;;;25.88;;
12869;SDS011;6503;48.572;13.460;2022-12-01T12:19:55;45.13;;;23.10;;
12869;SDS011;6503;48.572;13.460;2022-12-01T12:22:35;42.97;;;22.83;;
12869;SDS011;6503;48.572;13.460;2022-12-01T12:25:21;42.42;;;24.38;;
12869;SDS011;6503;48.572;13.460;2022-12-01T12:31:08;52.08;;;25.52;;
12869;SDS011;6503;48.572;13.460;2022-12-01T12:36:33;46.63;;;24.33;;
12869;SDS011;6503;48.572;13.460;2022-12-01T12:40:02;52.17;;;25.00;;
12869;SDS011;6503;48.572;13.460;2022-12-01T12:42:42;49.42;;;24.23;;
12869;SDS011;6503;48.572;13.460;2022-12-01T12:45:24;50.13;;;24.30;;
12869;SDS011;6503;48.572;13.460;2022-12-01T12:48:15;50.03;;;25.35;;
12869;SDS011;6503;48.572;13.460;2022-12-01T12:51:00;49.60;;;25.27;;
12869;SDS011;6503;48.572;13.460;2022-12-01T12:53:50;46.63;;;25.05;;
12869;SDS011;6503;48.572;13.460;2022-12-01T12:56:25;55.40;;;26.35;;
12869;SDS011;6503;48.572;13.460;2022-12-01T12:58:59;44.95;;;23.45;;
12869;SDS011;6503;48.572;13.460;2022-12-01T13:01:38;44.50;;;24.40;;
12869;SDS011;6503;48.572;13.460;2022-12-01T13:04:18;46.65;;;24.50;;
12869;SDS011;6503;48.572;13.460;2022-12-01T13:06:50;52.67;;;26.25;;
12869;SDS011;6503;48.572;13.460;2022-12-01T13:09:35;47.33;;;25.52;;
12869;SDS011;6503;48.572;13.460;2022-12-01T13:12:34;47.53;;;24.63;;
12869;SDS011;6503;48.572;13.460;2022-12-01T13:15:23;46.00;;;24.98;;
12869;SDS011;6503;48.572;13.460;2022-12-01T13:18:11;50.35;;;25.40;;
12869;SDS011;6503;48.572;13.460;2022-12-01T13:20:52;51.78;;;26.75;;
12869;SDS011;6503;48.572;13.460;2022-12-01T13:23:24;49.65;;;25.55;;
12869;SDS011;6503;48.572;13.460;2022-12-01T13:26:07;52.03;;;27.20;;
12869;SDS011;6503;48.572;13.460;2022-12-01T13:28:36;44.88;;;24.40;;
12869;SDS011;6503;48.572;13.460;2022-12-01T13:31:08;47.13;;;25.48;;
12869;SDS011;6503;48.572;13.460;2022-12-01T13:33:52;49.17;;;25.60;;
12869;SDS011;6503;48.572;13.460;2022-12-01T13:36:23;48.92;;;25.08;;
12869;SDS011;6503;48.572;13.460;2022-12-01T13:38:58;43.05;;;23.70;;
12869;SDS011;6503;48.572;13.460;2022-12-01T13:41:31;50.20;;;27.33;;
12869;SDS011;6503;48.572;13.460;2022-12-01T13:46:52;41.75;;;24.00;;
12869;SDS011;6503;48.572;13.460;2022-12-01T13:53:08;54.50;;;27.08;;
12869;SDS011;6503;48.572;13.460;2022-12-01T13:55:56;56.45;;;27.75;;
12869;SDS011;6503;48.572;13.460;2022-12-01T13:58:45;50.72;;;26.02;;
12869;SDS011;6503;48.572;13.460;2022-12-01T14:04:23;50.85;;;25.90;;
12869;SDS011;6503;48.572;13.460;2022-12-01T14:09:52;53.35;;;26.55;;
12869;SDS011;6503;48.572;13.460;2022-12-01T14:12:25;50.20;;;26.17;;
12869;SDS011;6503;48.572;13.460;2022-12-01T14:14:58;46.47;;;25.23;;
12869;SDS011;6503;48.572;13.460;2022-12-01T14:17:28;51.65;;;25.90;;
12869;SDS011;6503;48.572;13.460;2022-12-01T14:20:05;53.42;;;27.35;;
12869;SDS011;6503;48.572;13.460;2022-12-01T14:22:47;60.27;;;30.23;;
12869;SDS011;6503;48.572;13.460;2022-12-01T14:25:31;51.28;;;26.48;;
12869;SDS011;6503;48.572;13.460;2022-12-01T14:28:02;54.20;;;27.38;;
12869;SDS011;6503;48.572;13.460;2022-12-01T14:33:39;63.72;;;30.38;;
12869;SDS011;6503;48.572;13.460;2022-12-01T14:36:13;49.35;;;26.02;;
12869;SDS011;6503;48.572;13.460;2022-12-01T14:38:51;48.92;;;27.00;;
12869;SDS011;6503;48.572;13.460;2022-12-01T14:41:29;50.38;;;26.67;;
12869;SDS011;6503;48.572;13.460;2022-12-01T14:44:05;56.97;;;28.17;;
12869;SDS011;6503;48.572;13.460;2022-12-01T14:46:38;51.17;;;27.25;;
12869;SDS011;6503;48.572;13.460;2022-12-01T14:49:15;50.72;;;28.38;;
12869;SDS011;6503;48.572;13.460;2022-12-01T14:51:46;53.75;;;27.42;;
12869;SDS011;6503;48.572;13.460;2022-12-01T14:54:18;51.00;;;27.23;;
12869;SDS011;6503;48.572;13.460;2022-12-01T14:56:54;82.32;;;44.45;;
12869;SDS011;6503;48.572;13.460;2022-12-01T14:59:25;44.13;;;25.02;;
12869;SDS011;6503;48.572;13.460;2022-12-01T15:01:54;50.75;;;26.75;;
12869;SDS011;6503;48.572;13.460;2022-12-01T15:04:26;44.75;;;24.92;;
12869;SDS011;6503;48.572;13.460;2022-12-01T15:06:54;45.83;;;24.40;;
12869;SDS011;6503;48.572;13.460;2022-12-01T15:09:24;54.22;;;28.27;;
12869;SDS011;6503;48.572;13.460;2022-12-01T15:11:56;46.38;;;24.75;;
12869;SDS011;6503;48.572;13.460;2022-12-01T15:14:30;43.78;;;24.25;;
12869;SDS011;6503;48.572;13.460;2022-12-01T15:16:59;46.75;;;25.77;;
12869;SDS011;6503;48.572;13.460;2022-12-01T15:22:04;46.42;;;24.52;;
12869;SDS011;6503;48.572;13.460;2022-12-01T15:24:38;48.80;;;26.98;;
12869;SDS011;6503;48.572;13.460;2022-12-01T15:27:25;48.03;;;25.35;;
12869;SDS011;6503;48.572;13.460;2022-12-01T15:29:59;43.25;;;23.88;;
12869;SDS011;6503;48.572;13.460;2022-12-01T15:32:49;44.90;;;23.58;;
12869;SDS011;6503;48.572;13.460;2022-12-01T15:35:20;41.72;;;23.40;;
12869;SDS011;6503;48.572;13.460;2022-12-01T15:37:51;46.67;;;23.50;;
12869;SDS011;6503;48.572;13.460;2022-12-01T15:40:20;50.60;;;25.33;;
12869;SDS011;6503;48.572;13.460;2022-12-01T15:43:03;51.05;;;27.15;;
12869;SDS011;6503;48.572;13.460;2022-12-01T15:45:40;52.72;;;27.58;;
12869;SDS011;6503;48.572;13.460;2022-12-01T15:48:22;48.08;;;25.52;;
12869;SDS011;6503;48.572;13.460;2022-12-01T15:51:00;50.83;;;27.27;;
12869;SDS011;6503;48.572;13.460;2022-12-01T15:53:35;50.70;;;26.65;;
12869;SDS011;6503;48.572;13.460;2022-12-01T15:56:08;48.00;;;26.70;;
12869;SDS011;6503;48.572;13.460;2022-12-01T15:58:41;51.78;;;27.38;;
12869;SDS011;6503;48.572;13.460;2022-12-01T16:01:11;50.75;;;27.08;;
12869;SDS011;6503;48.572;13.460;2022-12-01T16:03:50;64.95;;;30.40;;
12869;SDS011;6503;48.572;13.460;2022-12-01T16:06:22;51.85;;;26.65;;
12869;SDS011;6503;48.572;13.460;2022-12-01T16:08:55;49.80;;;27.48;;
12869;SDS011;6503;48.572;13.460;2022-12-01T16:14:31;55.03;;;29.05;;
12869;SDS011;6503;48.572;13.460;2022-12-01T16:17:02;52.42;;;28.27;;
12869;SDS011;6503;48.572;13.460;2022-12-01T16:19:35;54.67;;;27.55;;
12869;SDS011;6503;48.572;13.460;2022-12-01T16:22:11;54.70;;;28.35;;
12869;SDS011;6503;48.572;13.460;2022-12-01T16:24:44;54.58;;;28.35;;
12869;SDS011;6503;48.572;13.460;2022-12-01T16:27:20;57.15;;;29.02;;
12869;SDS011;6503;48.572;13.460;2022-12-01T16:29:50;54.70;;;30.00;;
12869;SDS011;6503;48.572;13.460;2022-12-01T16:32:20;57.70;;;28.40;;
12869;SDS011;6503;48.572;13.460;2022-12-01T16:34:52;54.47;;;28.77;;
12869;SDS011;6503;48.572;13.460;2022-12-01T16:37:23;57.88;;;30.13;;
12869;SDS011;6503;48.572;13.460;2022-12-01T16:39:51;52.65;;;27.77;;
12869;SDS011;6503;48.572;13.460;2022-12-01T16:42:21;51.92;;;26.85;;
12869;SDS011;6503;48.572;13.460;2022-12-01T16:44:49;52.30;;;28.37;;